Time;durP1;ratioP1;P1;durP2;ratioP2;P2;SDS_P1;SDS_P2;PMS_P1;PMS_P2;Temp;Humidity;BMP_temperature;BMP_pressure;BME280_temperature;BME280_humidity;BME280_pressure;Samples;Min_cycle;Max_cycle;Signal;HPM_P1;HPM_P2
2023/07/07 00:01:52;;;;;;;6.77;3.70;;;11.70;49.00;;;;;;5052369;28;20572;-52
2023/07/07 00:04:21;;;;;;;3.20;3.00;;;11.80;39.90;;;;;;5050494;28;20541;-50
2023/07/07 00:06:48;;;;;;;3.40;3.20;;;11.70;48.30;;;;;;5052291;28;20461;-51
2023/07/07 00:09:14;;;;;;;8.13;4.37;;;11.60;41.50;;;;;;5051552;28;21097;-52
2023/07/07 00:11:41;;;;;;;3.70;3.40;;;11.50;38.90;;;;;;5058327;28;20505;-52
2023/07/07 00:14:08;;;;;;;4.43;3.57;;;11.60;35.60;;;;;;5050702;28;20568;-52
2023/07/07 00:16:38;;;;;;;4.70;3.47;;;11.60;34.40;;;;;;5049012;28;20461;-52
2023/07/07 00:19:10;;;;;;;5.03;3.13;;;11.50;34.20;;;;;;5049898;28;20504;-50
2023/07/07 00:21:37;;;;;;;3.50;3.20;;;11.60;40.60;;;;;;5054183;28;20461;-53
2023/07/07 00:24:05;;;;;;;3.83;3.53;;;11.60;45.30;;;;;;5055557;28;20547;-51
2023/07/07 00:26:33;;;;;;;4.83;3.10;;;11.60;44.40;;;;;;5050796;28;20461;-51
2023/07/07 00:29:00;;;;;;;4.87;3.53;;;11.60;38.70;;;;;;5046371;28;20465;-52
2023/07/07 00:31:27;;;;;;;3.60;3.30;;;11.40;40.80;;;;;;5054010;28;20540;-52
2023/07/07 00:33:54;;;;;;;4.53;3.60;;;11.50;26.70;;;;;;5050787;28;20862;-51
2023/07/07 00:36:22;;;;;;;3.80;3.50;;;11.40;37.50;;;;;;5051364;28;20564;-52
2023/07/07 00:38:50;;;;;;;4.13;3.63;;;11.40;31.60;;;;;;5051895;28;20489;-52
2023/07/07 00:41:16;;;;;;;3.30;3.10;;;11.30;30.70;;;;;;5048318;28;20539;-52
2023/07/07 00:43:59;;;;;;;5.53;3.70;;;11.40;24.50;;;;;;5051363;28;20456;-52
2023/07/07 00:46:26;;;;;;;3.87;3.07;;;11.30;32.60;;;;;;5046237;28;20556;-51
2023/07/07 00:48:52;;;;;;;4.30;3.70;;;11.30;93.20;;;;;;5051031;28;20497;-50
2023/07/07 00:51:25;;;;;;;4.77;3.70;;;11.30;28.10;;;;;;5051904;28;20469;-50
2023/07/07 00:53:53;;;;;;;4.53;3.20;;;11.40;31.20;;;;;;5051548;28;20581;-52
2023/07/07 00:56:24;;;;;;;4.20;3.80;;;11.30;36.60;;;;;;5050595;28;20575;-52
2023/07/07 00:58:51;;;;;;;5.77;3.47;;;11.30;32.90;;;;;;5048528;28;20485;-52
2023/07/07 01:01:18;;;;;;;3.60;3.30;;;11.30;27.20;;;;;;5052025;28;20570;-53
2023/07/07 01:03:49;;;;;;;3.67;3.40;;;11.30;36.20;;;;;;5048027;28;20895;-51
2023/07/07 01:06:21;;;;;;;6.40;3.37;;;11.20;35.50;;;;;;5046515;28;20585;-51
2023/07/07 01:08:57;;;;;;;4.43;3.40;;;11.10;33.00;;;;;;5048936;28;20552;-51
2023/07/07 01:11:24;;;;;;;4.17;3.50;;;11.10;27.80;;;;;;5041519;28;20548;-52
2023/07/07 01:13:51;;;;;;;4.30;3.27;;;11.10;27.00;;;;;;5046254;28;20569;-51
2023/07/07 01:16:24;;;;;;;10.37;3.40;;;11.20;87.70;;;;;;5049089;28;20585;-52
2023/07/07 01:18:57;;;;;;;5.37;4.20;;;11.10;27.40;;;;;;5044007;28;20561;-52
2023/07/07 01:21:29;;;;;;;12.97;3.67;;;11.10;21.60;;;;;;5043444;28;20549;-52
2023/07/07 01:24:41;;;;;;;3.67;3.37;;;11.10;28.40;;;;;;5048382;28;20466;-52
2023/07/07 01:27:32;;;;;;;4.10;3.80;;;11.00;92.90;;;;;;5000894;28;20970;-52
2023/07/07 01:30:29;;;;;;;4.00;3.60;;;11.00;23.00;;;;;;5002027;28;20462;-52
2023/07/07 01:32:56;;;;;;;4.60;4.17;;;11.00;86.60;;;;;;5047515;28;20485;-52
2023/07/07 01:35:23;;;;;;;4.03;3.37;;;11.00;22.40;;;;;;5048929;28;20584;-52
2023/07/07 01:37:52;;;;;;;4.93;3.80;;;10.90;24.90;;;;;;5053025;28;20496;-52
2023/07/07 01:40:19;;;;;;;4.00;3.70;;;10.90;99.90;;;;;;5052887;28;20458;-52
2023/07/07 01:42:51;;;;;;;3.93;3.50;;;10.90;71.70;;;;;;5054191;28;20526;-51
2023/07/07 01:45:27;;;;;;;4.93;3.40;;;10.90;24.00;;;;;;5052143;28;20565;-52
2023/07/07 01:48:03;;;;;;;5.03;3.40;;;10.90;99.90;;;;;;5049180;28;20568;-51
2023/07/07 01:50:33;;;;;;;4.03;3.67;;;10.90;99.90;;;;;;5048188;28;20547;-52
2023/07/07 01:53:04;;;;;;;14.80;4.13;;;10.80;86.60;;;;;;5052967;28;20557;-53
2023/07/07 01:55:33;;;;;;;3.57;3.27;;;10.70;99.90;;;;;;5053014;28;20564;-51
2023/07/07 01:58:04;;;;;;;3.93;3.63;;;10.70;99.90;;;;;;5052960;28;20548;-51
2023/07/07 02:00:32;;;;;;;4.17;3.63;;;10.70;99.90;;;;;;5049794;28;20564;-52
2023/07/07 02:03:01;;;;;;;3.87;3.53;;;10.70;99.90;;;;;;5051553;28;20536;-51
2023/07/07 02:05:28;;;;;;;3.40;3.20;;;10.70;96.00;;;;;;5053385;28;21065;-51
2023/07/07 02:07:55;;;;;;;5.00;4.10;;;10.60;99.90;;;;;;5052716;28;20549;-52
2023/07/07 02:10:21;;;;;;;13.37;3.67;;;10.50;99.90;;;;;;5041112;28;20511;-52
2023/07/07 02:12:48;;;;;;;3.47;3.27;;;10.50;99.90;;;;;;5050149;28;20512;-51
2023/07/07 02:15:15;;;;;;;4.13;3.70;;;10.60;99.90;;;;;;5052808;28;20497;-51
2023/07/07 02:17:42;;;;;;;5.60;3.90;;;10.70;99.90;;;;;;5065679;22;20609;-52
2023/07/07 02:20:11;;;;;;;4.60;3.80;;;10.60;99.90;;;;;;5052679;28;20553;-52
2023/07/07 02:22:38;;;;;;;3.97;3.50;;;10.60;99.90;;;;;;5052972;28;20544;-53
2023/07/07 02:25:06;;;;;;;3.60;3.30;;;10.50;99.90;;;;;;5049350;28;20492;-53
2023/07/07 02:27:32;;;;;;;4.77;3.50;;;10.50;99.90;;;;;;5037072;28;20561;-52
2023/07/07 02:29:59;;;;;;;3.90;3.60;;;10.50;99.90;;;;;;5032545;28;20549;-52
2023/07/07 02:32:26;;;;;;;3.83;3.47;;;10.40;99.90;;;;;;5031354;28;20557;-53
2023/07/07 02:34:56;;;;;;;4.17;3.77;;;10.50;99.90;;;;;;5033810;28;20495;-52
2023/07/07 02:37:24;;;;;;;4.00;3.57;;;10.50;99.90;;;;;;5028377;28;20483;-53
2023/07/07 02:39:51;;;;;;;3.73;3.50;;;10.50;99.90;;;;;;5037627;28;20447;-53
2023/07/07 02:42:18;;;;;;;4.67;3.87;;;10.50;99.90;;;;;;5034505;28;20518;-53
2023/07/07 02:44:44;;;;;;;3.80;3.50;;;10.40;99.90;;;;;;5033081;28;20462;-52
2023/07/07 02:47:11;;;;;;;9.60;3.70;;;10.40;99.90;;;;;;5034156;28;20550;-53
2023/07/07 02:49:37;;;;;;;5.20;3.73;;;10.30;99.90;;;;;;5030502;28;20538;-53
2023/07/07 02:52:05;;;;;;;3.97;3.67;;;10.40;99.90;;;;;;5032672;28;20533;-58
2023/07/07 02:54:33;;;;;;;3.43;3.20;;;10.30;99.90;;;;;;5034197;28;21103;-58
2023/07/07 02:56:59;;;;;;;3.90;3.50;;;10.30;99.90;;;;;;5033221;28;20927;-58
2023/07/07 02:59:26;;;;;;;5.40;3.90;;;10.20;99.90;;;;;;5032565;28;20550;-58
2023/07/07 03:01:52;;;;;;;4.27;3.87;;;10.30;99.90;;;;;;5033635;28;20549;-58
2023/07/07 03:04:19;;;;;;;3.80;3.50;;;10.30;99.90;;;;;;5032426;28;20487;-58
2023/07/07 03:06:47;;;;;;;4.90;3.70;;;10.30;99.90;;;;;;5030402;28;20554;-59
2023/07/07 03:09:14;;;;;;;3.73;3.53;;;10.30;99.90;;;;;;5031753;28;20562;-58
2023/07/07 03:11:42;;;;;;;4.57;4.13;;;10.20;99.90;;;;;;5033120;28;20554;-58
2023/07/07 03:14:08;;;;;;;6.93;4.40;;;10.20;99.90;;;;;;5031736;28;20577;-58
2023/07/07 03:16:35;;;;;;;3.60;3.40;;;10.20;99.90;;;;;;5034267;28;20581;-59
2023/07/07 03:19:03;;;;;;;4.07;3.77;;;10.10;99.90;;;;;;5035755;28;20550;-58
2023/07/07 03:21:31;;;;;;;5.10;4.00;;;10.10;99.90;;;;;;5032436;28;20475;-58
2023/07/07 03:23:58;;;;;;;5.70;3.83;;;10.30;99.90;;;;;;5030296;28;20988;-58
2023/07/07 03:26:26;;;;;;;4.57;4.17;;;10.20;99.90;;;;;;5030924;28;20578;-59
2023/07/07 03:28:55;;;;;;;3.80;3.50;;;10.20;99.90;;;;;;5034160;28;20489;-58
2023/07/07 03:31:23;;;;;;;6.03;4.10;;;10.20;99.90;;;;;;5034788;28;20463;-58
2023/07/07 03:33:51;;;;;;;5.40;4.10;;;10.30;99.90;;;;;;5036053;28;20478;-58
2023/07/07 03:36:21;;;;;;;4.40;4.10;;;10.30;99.90;;;;;;5031939;28;20589;-58
2023/07/07 03:38:48;;;;;;;3.83;3.20;;;10.30;99.90;;;;;;5030000;28;21189;-59
2023/07/07 03:41:17;;;;;;;6.73;3.73;;;10.30;99.90;;;;;;5029178;28;20545;-59
2023/07/07 03:43:45;;;;;;;6.33;4.03;;;10.30;99.90;;;;;;5032012;28;20491;-58
2023/07/07 03:46:13;;;;;;;5.13;4.33;;;10.40;99.90;;;;;;5033049;28;20486;-58
2023/07/07 03:48:39;;;;;;;6.90;3.80;;;10.40;99.90;;;;;;5034478;28;20550;-59
2023/07/07 03:51:07;;;;;;;3.87;3.67;;;10.50;99.90;;;;;;5032418;28;21035;-59
2023/07/07 03:53:34;;;;;;;4.83;4.40;;;10.50;99.90;;;;;;5030639;28;20459;-58
2023/07/07 03:56:00;;;;;;;5.80;4.00;;;10.60;99.90;;;;;;5021866;28;20558;-59
2023/07/07 03:58:28;;;;;;;4.10;3.77;;;10.60;99.90;;;;;;5034901;28;20574;-58
2023/07/07 04:00:59;;;;;;;4.63;4.22;;;10.60;99.90;;;;;;5030739;28;20540;-60
2023/07/07 04:03:27;;;;;;;4.70;4.30;;;10.70;99.90;;;;;;5032233;28;20726;-59
2023/07/07 04:05:55;;;;;;;3.70;3.40;;;10.70;99.90;;;;;;5030867;28;20544;-58
2023/07/07 04:08:23;;;;;;;7.17;3.90;;;10.80;99.90;;;;;;5031273;28;20474;-60
2023/07/07 04:10:59;;;;;;;3.70;3.50;;;10.90;99.90;;;;;;5029119;28;20467;-60
2023/07/07 04:13:26;;;;;;;3.87;3.37;;;10.90;99.90;;;;;;5019936;28;20460;-60
2023/07/07 04:16:00;;;;;;;10.80;4.13;;;10.90;99.90;;;;;;5027759;28;20886;-59
2023/07/07 04:18:31;;;;;;;3.77;3.47;;;11.00;99.90;;;;;;5022290;28;20498;-60
2023/07/07 04:20:59;;;;;;;4.60;3.90;;;11.10;99.90;;;;;;5023732;28;20546;-58
2023/07/07 04:23:25;;;;;;;3.90;3.60;;;11.10;99.90;;;;;;5027025;28;20459;-58
2023/07/07 04:25:52;;;;;;;4.10;3.80;;;11.20;99.90;;;;;;5026111;28;20482;-58
2023/07/07 04:28:19;;;;;;;4.80;4.27;;;11.20;99.90;;;;;;5024055;28;20522;-57
2023/07/07 04:30:50;;;;;;;4.90;3.80;;;11.30;99.90;;;;;;5026771;28;20554;-57
2023/07/07 04:33:16;;;;;;;5.63;3.20;;;11.40;99.90;;;;;;5029698;28;20907;-57
2023/07/07 04:35:44;;;;;;;4.07;3.77;;;11.50;99.90;;;;;;5026858;28;20641;-57
2023/07/07 04:38:11;;;;;;;3.97;3.60;;;11.50;99.90;;;;;;5027830;28;20537;-58
2023/07/07 04:40:37;;;;;;;4.40;4.00;;;11.70;99.90;;;;;;5029572;28;20462;-57
2023/07/07 04:43:04;;;;;;;5.80;4.00;;;11.70;99.90;;;;;;5027878;28;20538;-58
2023/07/07 04:45:33;;;;;;;4.33;3.93;;;11.80;99.90;;;;;;5025895;28;20541;-57
2023/07/07 04:48:00;;;;;;;4.70;4.30;;;11.90;99.90;;;;;;5028628;28;20518;-57
2023/07/07 04:50:27;;;;;;;5.93;4.23;;;12.00;99.90;;;;;;5022367;28;20548;-57
2023/07/07 04:52:55;;;;;;;4.00;3.60;;;12.00;99.90;;;;;;5027555;28;21024;-58
2023/07/07 04:55:21;;;;;;;6.37;3.67;;;12.20;99.90;;;;;;5026454;28;20567;-59
2023/07/07 04:57:48;;;;;;;7.00;4.70;;;12.30;99.90;;;;;;5028213;28;21012;-58
2023/07/07 05:00:15;;;;;;;4.40;4.10;;;12.40;99.90;;;;;;5028542;28;20546;-59
2023/07/07 05:02:41;;;;;;;6.13;4.23;;;12.50;99.90;;;;;;5026809;28;20466;-57
2023/07/07 05:05:08;;;;;;;7.10;4.27;;;12.70;99.90;;;;;;5025868;28;20565;-57
2023/07/07 05:07:34;;;;;;;6.53;4.03;;;12.80;99.90;;;;;;5027812;28;21069;-58
2023/07/07 05:10:02;;;;;;;6.57;3.60;;;13.00;99.90;;;;;;5027777;28;20557;-58
2023/07/07 05:12:29;;;;;;;3.50;3.30;;;13.20;88.90;;;;;;5027764;28;20476;-57
2023/07/07 05:14:55;;;;;;;4.67;3.67;;;13.30;86.10;;;;;;5034350;28;20477;-58
2023/07/07 05:17:22;;;;;;;14.37;3.50;;;13.40;21.30;;;;;;5028806;28;20526;-58
2023/07/07 05:19:49;;;;;;;4.00;3.63;;;13.60;25.50;;;;;;5023912;28;20578;-57
2023/07/07 05:22:15;;;;;;;3.87;3.50;;;13.70;28.60;;;;;;5026851;28;20598;-57
2023/07/07 05:24:42;;;;;;;4.13;3.73;;;13.90;33.00;;;;;;5027422;28;20458;-58
2023/07/07 05:27:10;;;;;;;5.33;3.40;;;14.10;37.90;;;;;;5029629;28;20835;-57
2023/07/07 05:29:37;;;;;;;12.73;4.43;;;14.30;43.80;;;;;;5031177;28;20455;-58
2023/07/07 05:32:03;;;;;;;3.30;3.00;;;14.50;47.80;;;;;;5029309;28;20542;-57
2023/07/07 05:34:30;;;;;;;3.47;2.93;;;14.60;71.60;;;;;;5027505;28;20574;-57
2023/07/07 05:36:57;;;;;;;3.70;2.67;;;14.70;93.10;;;;;;5027601;28;20832;-57
2023/07/07 05:39:23;;;;;;;10.10;2.90;;;14.80;99.20;;;;;;5028445;28;20889;-58
2023/07/07 05:41:50;;;;;;;3.20;2.83;;;15.00;99.90;;;;;;5015583;28;20526;-58
2023/07/07 05:44:18;;;;;;;2.87;2.60;;;15.20;99.90;;;;;;5016393;28;20545;-57
2023/07/07 05:46:44;;;;;;;7.50;2.43;;;15.40;99.90;;;;;;5027084;28;20486;-49
2023/07/07 05:49:11;;;;;;;3.63;2.50;;;15.60;99.90;;;;;;5021408;28;20467;-49
2023/07/07 05:51:37;;;;;;;2.90;2.70;;;15.80;99.90;;;;;;5024422;28;20475;-49
2023/07/07 05:54:04;;;;;;;2.93;2.70;;;15.90;99.90;;;;;;5023421;28;20587;-49
2023/07/07 05:56:31;;;;;;;2.83;2.63;;;16.00;99.90;;;;;;5023987;28;20579;-50
2023/07/07 05:58:57;;;;;;;4.23;2.80;;;16.10;99.90;;;;;;5029908;28;20538;-49
2023/07/07 06:01:26;;;;;;;3.87;2.70;;;16.30;99.90;;;;;;5022019;28;20472;-49
2023/07/07 06:03:53;;;;;;;4.93;3.20;;;16.40;21.10;;;;;;5028708;28;20453;-50
2023/07/07 06:06:19;;;;;;;5.30;2.73;;;16.50;82.00;;;;;;5024314;28;20477;-49
2023/07/07 06:08:46;;;;;;;2.60;2.40;;;16.60;43.80;;;;;;5028125;28;20994;-50
2023/07/07 06:11:13;;;;;;;3.53;2.67;;;16.70;52.20;;;;;;5029926;28;20571;-50
2023/07/07 06:13:39;;;;;;;3.10;2.40;;;16.80;63.40;;;;;;5029675;28;20540;-50
2023/07/07 06:16:06;;;;;;;2.60;2.40;;;17.00;69.40;;;;;;5030706;28;20514;-49
2023/07/07 06:18:34;;;;;;;4.40;2.57;;;17.20;90.90;;;;;;5028086;28;20881;-49
2023/07/07 06:21:01;;;;;;;5.80;2.60;;;17.30;99.00;;;;;;5032431;28;20550;-50
2023/07/07 06:23:28;;;;;;;3.40;2.40;;;17.40;83.90;;;;;;5030434;28;20542;-50
2023/07/07 06:25:55;;;;;;;10.83;2.50;;;17.50;82.70;;;;;;5031839;28;20561;-49
2023/07/07 06:28:22;;;;;;;2.50;2.40;;;17.60;95.00;;;;;;5023359;28;20889;-49
2023/07/07 06:30:49;;;;;;;2.33;2.10;;;17.70;89.00;;;;;;5025940;28;20966;-50
2023/07/07 06:33:16;;;;;;;2.47;2.37;;;17.80;99.90;;;;;;5025380;28;20483;-48
2023/07/07 06:35:45;;;;;;;6.07;2.77;;;17.90;99.90;;;;;;5034318;28;20564;-49
2023/07/07 06:38:11;;;;;;;3.53;2.80;;;18.00;99.90;;;;;;5029339;28;20455;-49
2023/07/07 06:40:38;;;;;;;5.10;3.30;;;18.10;99.90;;;;;;5032125;28;20538;-50
2023/07/07 06:43:05;;;;;;;3.10;2.30;;;18.20;99.90;;;;;;5040931;28;20540;-50
2023/07/07 06:45:34;;;;;;;5.50;2.43;;;18.40;99.90;;;;;;5026147;28;20563;-51
2023/07/07 06:48:02;;;;;;;4.60;2.57;;;18.60;99.90;;;;;;5031239;28;20482;-50
2023/07/07 06:50:30;;;;;;;3.10;2.30;;;18.60;99.90;;;;;;5030965;28;20971;-49
2023/07/07 06:52:58;;;;;;;8.33;2.87;;;18.70;99.90;;;;;;5032272;28;21012;-50
2023/07/07 06:55:25;;;;;;;3.57;3.20;;;18.70;99.90;;;;;;5033755;28;20513;-50
2023/07/07 06:57:51;;;;;;;6.70;3.10;;;18.80;99.90;;;;;;5032812;28;20510;-49
2023/07/07 07:00:19;;;;;;;3.13;2.93;;;19.00;99.90;;;;;;5030818;28;21047;-50
2023/07/07 07:02:46;;;;;;;7.33;2.90;;;19.10;99.90;;;;;;5032607;28;20512;-50
2023/07/07 07:05:12;;;;;;;5.43;3.07;;;19.20;99.90;;;;;;5027749;28;21204;-50
2023/07/07 07:07:39;;;;;;;70.63;5.00;;;19.20;99.90;;;;;;5032094;28;20566;-50
2023/07/07 07:10:07;;;;;;;4.40;3.17;;;19.20;99.90;;;;;;5025816;28;21063;-49
2023/07/07 07:12:34;;;;;;;2.80;2.60;;;19.30;99.90;;;;;;5029071;28;20521;-51
2023/07/07 07:15:00;;;;;;;5.27;4.00;;;19.40;99.90;;;;;;5028248;28;20479;-50
2023/07/07 07:17:27;;;;;;;3.33;3.03;;;19.40;99.90;;;;;;5027137;28;20589;-51
2023/07/07 07:19:54;;;;;;;4.00;2.93;;;19.50;99.90;;;;;;5029622;28;20517;-50
2023/07/07 07:22:21;;;;;;;11.33;3.20;;;19.60;99.90;;;;;;5029952;28;21022;-50
2023/07/07 07:24:47;;;;;;;5.27;3.23;;;19.70;99.90;;;;;;5031767;28;20541;-50
2023/07/07 07:27:15;;;;;;;16.10;3.47;;;19.80;99.90;;;;;;5032026;28;20550;-50
2023/07/07 07:29:43;;;;;;;4.90;3.40;;;19.90;99.90;;;;;;5030786;28;20554;-51
2023/07/07 07:32:10;;;;;;;5.40;2.97;;;20.00;99.90;;;;;;5031498;28;20459;-50
2023/07/07 07:34:37;;;;;;;5.80;3.07;;;20.00;99.90;;;;;;5027965;28;20492;-49
2023/07/07 07:37:04;;;;;;;3.97;2.70;;;20.10;99.90;;;;;;5022652;28;20598;-50
2023/07/07 07:39:32;;;;;;;3.50;3.10;;;20.20;99.90;;;;;;5026476;28;20553;-49
2023/07/07 07:41:58;;;;;;;5.37;3.67;;;20.20;99.90;;;;;;5030054;28;20545;-50
2023/07/07 07:44:27;;;;;;;4.20;3.13;;;20.30;99.90;;;;;;5028871;28;20546;-51
2023/07/07 07:46:56;;;;;;;4.83;3.53;;;20.40;99.90;;;;;;5028162;28;20561;-50
2023/07/07 07:49:24;;;;;;;6.50;3.87;;;20.60;99.90;;;;;;5019207;28;20459;-50
2023/07/07 07:51:50;;;;;;;3.20;2.90;;;20.70;99.90;;;;;;5020080;28;20553;-51
2023/07/07 07:54:18;;;;;;;2.60;2.40;;;20.70;99.90;;;;;;5028926;28;20550;-50
2023/07/07 07:56:45;;;;;;;10.60;3.23;;;20.80;99.90;;;;;;5025531;28;20489;-50
2023/07/07 07:59:12;;;;;;;7.00;2.87;;;20.80;99.90;;;;;;5030916;28;20864;-50
2023/07/07 08:01:41;;;;;;;2.70;2.30;;;20.90;99.90;;;;;;5028059;28;20550;-51
2023/07/07 08:04:07;;;;;;;3.67;2.90;;;21.00;99.90;;;;;;5026074;28;20546;-50
2023/07/07 08:06:35;;;;;;;3.63;2.83;;;21.10;99.90;;;;;;5025152;28;21098;-51
2023/07/07 08:09:03;;;;;;;2.60;2.43;;;21.20;99.90;;;;;;5027746;28;20561;-51
2023/07/07 08:11:55;;;;;;;6.77;2.30;;;21.30;99.90;;;;;;5023637;28;20466;-50
2023/07/07 08:14:27;;;;;;;2.90;2.13;;;21.40;99.90;;;;;;5024734;28;20474;-51
2023/07/07 08:16:55;;;;;;;2.50;1.87;;;21.50;99.90;;;;;;5035328;23;20512;-55
2023/07/07 08:19:21;;;;;;;2.60;2.40;;;21.50;99.90;;;;;;5039430;28;20554;-53
2023/07/07 08:21:48;;;;;;;3.90;2.50;;;21.60;99.90;;;;;;5044497;28;20572;-54
2023/07/07 08:24:16;;;;;;;8.40;2.57;;;21.60;99.90;;;;;;5044776;28;20585;-53
2023/07/07 08:26:42;;;;;;;9.50;1.87;;;21.80;99.90;;;;;;5040482;28;20844;-55
2023/07/07 08:29:10;;;;;;;2.37;2.17;;;21.90;99.90;;;;;;5049937;28;20558;-55
2023/07/07 08:31:36;;;;;;;5.57;2.13;;;22.10;99.90;;;;;;5044047;28;20470;-53
2023/07/07 08:34:05;;;;;;;2.97;2.40;;;22.10;99.90;;;;;;5044369;28;20573;-54
2023/07/07 08:36:32;;;;;;;5.83;2.37;;;22.20;99.90;;;;;;5046301;28;20580;-53
2023/07/07 08:39:02;;;;;;;4.17;2.30;;;22.20;99.90;;;;;;5044607;28;20548;-52
2023/07/07 08:41:29;;;;;;;4.57;2.20;;;22.30;99.90;;;;;;5044687;28;20842;-54
2023/07/07 08:43:56;;;;;;;3.90;1.83;;;22.40;99.90;;;;;;5045799;28;20540;-53
2023/07/07 08:46:32;;;;;;;6.90;2.00;;;22.50;99.90;;;;;;5039984;28;20995;-54
2023/07/07 08:49:06;;;;;;;5.87;1.43;;;22.70;99.90;;;;;;5042400;28;21037;-53
2023/07/07 08:51:40;;;;;;;4.80;2.33;;;22.80;99.90;;;;;;5048705;28;20488;-54
2023/07/07 08:54:12;;;;;;;12.40;1.87;;;22.90;99.90;;;;;;5042520;28;21050;-54
2023/07/07 08:56:58;;;;;;;2.77;1.90;;;23.00;99.90;;;;;;5042586;28;20568;-53
2023/07/07 08:59:34;;;;;;;2.70;1.30;;;23.00;99.90;;;;;;5039464;28;20549;-55
2023/07/07 09:02:08;;;;;;;2.37;1.53;;;23.20;99.90;;;;;;5051737;28;20445;-53
2023/07/07 09:04:47;;;;;;;1.50;1.40;;;23.30;99.90;;;;;;5045201;28;21050;-53
2023/07/07 09:07:37;;;;;;;5.97;2.07;;;23.40;99.90;;;;;;5045343;28;20847;-55
2023/07/07 09:10:33;;;;;;;3.70;1.50;;;23.50;99.90;;;;;;5045227;28;21056;-53
2023/07/07 09:13:05;;;;;;;2.03;1.60;;;23.80;99.90;;;;;;5047119;28;20493;-54
2023/07/07 09:15:36;;;;;;;2.20;2.10;;;24.10;99.90;;;;;;5049499;28;21010;-54
2023/07/07 09:18:09;;;;;;;7.13;2.30;;;24.30;99.90;;;;;;5046210;28;20997;-53
2023/07/07 09:20:38;;;;;;;4.53;1.87;;;24.80;99.90;;;;;;5048207;28;20911;-54
2023/07/07 09:23:09;;;;;;;2.10;2.00;;;25.30;99.90;;;;;;5042271;28;20458;-54
2023/07/07 09:25:42;;;;;;;2.37;2.17;;;25.50;99.90;;;;;;5045098;28;21042;-53
2023/07/07 09:28:11;;;;;;;6.07;1.80;;;25.50;99.90;;;;;;5045453;28;21080;-53
2023/07/07 09:30:42;;;;;;;1.87;1.57;;;25.30;99.90;;;;;;5045151;28;20534;-54
2023/07/07 09:33:13;;;;;;;3.30;1.80;;;25.10;99.90;;;;;;5046688;28;20914;-55
2023/07/07 09:35:49;;;;;;;17.37;1.80;;;25.00;99.90;;;;;;5048810;28;20578;-53
2023/07/07 09:38:26;;;;;;;3.93;2.10;;;24.90;99.90;;;;;;5046493;28;22363;-53
2023/07/07 09:40:59;;;;;;;1.70;1.60;;;25.00;99.90;;;;;;5045043;28;21038;-54
2023/07/07 09:43:36;;;;;;;3.13;1.53;;;25.10;99.90;;;;;;5038557;28;20553;-54
2023/07/07 09:46:13;;;;;;;4.90;1.70;;;25.40;99.90;;;;;;5034550;28;20541;-54
2023/07/07 09:48:50;;;;;;;3.13;1.53;;;25.40;99.90;;;;;;5030383;28;20592;-55
2023/07/07 09:51:34;;;;;;;1.50;1.40;;;25.20;99.90;;;;;;5044910;28;20500;-54
2023/07/07 09:54:01;;;;;;;4.30;1.77;;;25.30;99.90;;;;;;5049364;28;20541;-54
2023/07/07 09:56:35;;;;;;;2.90;1.67;;;25.50;99.90;;;;;;5052471;28;20513;-53
2023/07/07 09:59:08;;;;;;;3.37;1.40;;;25.70;99.90;;;;;;5052423;28;20484;-55
2023/07/07 10:01:40;;;;;;;1.57;1.43;;;25.70;99.90;;;;;;5050636;28;20462;-54
2023/07/07 10:04:14;;;;;;;1.77;1.57;;;25.80;99.90;;;;;;5049034;28;20554;-53
2023/07/07 10:06:47;;;;;;;1.47;1.33;;;25.80;99.90;;;;;;5051547;28;20478;-53
2023/07/07 10:09:14;;;;;;;1.77;1.67;;;25.90;99.90;;;;;;5050717;28;20504;-53
2023/07/07 10:11:43;;;;;;;2.10;1.90;;;26.50;99.90;;;;;;5054523;28;21016;-54
2023/07/07 10:14:13;;;;;;;4.47;1.30;;;26.50;99.90;;;;;;5047643;28;20545;-54
2023/07/07 10:16:50;;;;;;;2.27;1.20;;;26.50;99.90;;;;;;5051154;28;20576;-54
2023/07/07 10:19:17;;;;;;;1.60;1.50;;;26.20;99.90;;;;;;5049244;28;20564;-54
2023/07/07 10:21:45;;;;;;;1.30;1.20;;;26.20;99.90;;;;;;5049716;28;20907;-54
2023/07/07 10:24:13;;;;;;;7.20;1.40;;;26.50;99.90;;;;;;5044651;28;21014;-54
2023/07/07 10:26:44;;;;;;;2.10;1.53;;;26.60;99.90;;;;;;5048590;28;20474;-55
2023/07/07 10:29:15;;;;;;;3.70;1.07;;;26.60;99.90;;;;;;5050547;28;20827;-54
2023/07/07 10:31:42;;;;;;;5.73;1.63;;;27.00;99.90;;;;;;5046965;28;20457;-53
2023/07/07 10:34:22;;;;;;;1.50;1.40;;;27.10;99.90;;;;;;5047938;28;20458;-56
2023/07/07 10:36:53;;;;;;;5.37;1.90;;;28.10;99.90;;;;;;5048332;28;20572;-54
2023/07/07 10:39:22;;;;;;;3.90;1.50;;;27.80;99.90;;;;;;5041562;28;20553;-54
2023/07/07 10:41:49;;;;;;;1.53;1.53;;;27.40;99.90;;;;;;5046311;28;20917;-53
2023/07/07 10:44:15;;;;;;;1.73;1.57;;;27.30;99.90;;;;;;5052916;28;20527;-54
2023/07/07 10:46:42;;;;;;;1.13;1.13;;;27.30;99.90;;;;;;5053295;28;20545;-54
2023/07/07 10:49:15;;;;;;;6.83;1.40;;;27.40;99.90;;;;;;5052525;28;20545;-55
2023/07/07 10:51:53;;;;;;;1.47;1.37;;;27.40;99.90;;;;;;5051627;28;20466;-54
2023/07/07 10:54:29;;;;;;;1.73;1.30;;;27.00;99.90;;;;;;5051034;28;20489;-54
2023/07/07 10:57:06;;;;;;;1.97;1.60;;;26.60;99.90;;;;;;5052523;28;21061;-53
2023/07/07 10:59:43;;;;;;;2.23;1.70;;;27.10;99.90;;;;;;5046024;28;20552;-54
2023/07/07 11:02:26;;;;;;;1.63;1.27;;;27.00;99.90;;;;;;5049004;28;20546;-54
2023/07/07 11:05:19;;;;;;;2.90;1.77;;;27.50;99.90;;;;;;5049568;28;20461;-54
2023/07/07 11:07:53;;;;;;;1.30;1.20;;;27.90;99.90;;;;;;5039864;28;20469;-54
2023/07/07 11:10:41;;;;;;;3.00;1.50;;;27.80;99.90;;;;;;5042997;28;20557;-55
2023/07/07 11:13:15;;;;;;;3.10;1.50;;;27.80;99.90;;;;;;5047770;28;20485;-55
2023/07/07 11:15:48;;;;;;;2.97;1.17;;;27.80;99.90;;;;;;5047855;28;20548;-55
2023/07/07 11:18:37;;;;;;;1.87;1.30;;;27.60;99.90;;;;;;5048779;28;20580;-55
2023/07/07 11:21:17;;;;;;;2.87;1.30;;;27.60;99.90;;;;;;5040642;28;20900;-53
2023/07/07 11:24:01;;;;;;;2.73;1.80;;;27.40;99.90;;;;;;5047220;28;20539;-54
2023/07/07 11:26:38;;;;;;;1.73;1.30;;;27.40;99.90;;;;;;5048455;28;20489;-55
2023/07/07 11:29:14;;;;;;;2.47;1.87;;;27.60;99.60;;;;;;5049938;28;20552;-54
2023/07/07 11:31:52;;;;;;;1.07;1.07;;;27.90;99.90;;;;;;5044489;28;21057;-55
2023/07/07 11:34:32;;;;;;;3.90;1.60;;;28.00;99.90;;;;;;5047059;28;20537;-55
2023/07/07 11:37:12;;;;;;;1.30;1.20;;;28.30;99.90;;;;;;5047068;28;20612;-54
2023/07/07 11:40:04;;;;;;;5.93;1.60;;;27.70;99.90;;;;;;5046226;28;21097;-54
2023/07/07 11:42:52;;;;;;;1.60;1.50;;;28.00;99.90;;;;;;5046006;28;20545;-53
2023/07/07 11:45:29;;;;;;;3.03;1.90;;;27.70;99.90;;;;;;5047946;28;20482;-54
2023/07/07 11:48:13;;;;;;;2.40;1.57;;;27.70;98.20;;;;;;5044391;28;20470;-53
2023/07/07 11:50:54;;;;;;;2.90;1.10;;;27.70;99.90;;;;;;5047889;28;20548;-55
2023/07/07 11:53:40;;;;;;;2.57;1.53;;;27.60;99.90;;;;;;5044628;28;20903;-54
2023/07/07 11:56:19;;;;;;;1.63;1.20;;;27.30;97.10;;;;;;5047668;28;20564;-53
2023/07/07 11:58:54;;;;;;;2.93;1.53;;;27.60;99.90;;;;;;5046028;28;20544;-54
2023/07/07 12:01:26;;;;;;;3.80;1.77;;;27.90;97.60;;;;;;5047457;28;20522;-53
2023/07/07 12:03:57;;;;;;;3.50;1.97;;;27.50;99.90;;;;;;5049921;28;20548;-55
2023/07/07 12:06:31;;;;;;;7.13;2.33;;;27.80;99.90;;;;;;5044573;28;20541;-53
2023/07/07 12:09:05;;;;;;;3.60;2.30;;;27.60;99.90;;;;;;5046888;28;20556;-53
2023/07/07 12:11:37;;;;;;;5.10;1.50;;;27.60;98.20;;;;;;5047295;28;20914;-52
2023/07/07 12:14:20;;;;;;;2.20;2.00;;;27.60;99.90;;;;;;5048864;28;20462;-54
2023/07/07 12:16:50;;;;;;;1.90;1.70;;;27.80;99.90;;;;;;5044658;28;20576;-53
2023/07/07 12:19:31;;;;;;;4.03;1.60;;;28.10;82.30;;;;;;5048106;28;21991;-55
2023/07/07 12:22:00;;;;;;;3.53;1.50;;;27.80;99.90;;;;;;5047052;28;20462;-56
2023/07/07 12:24:38;;;;;;;3.40;1.50;;;28.00;99.90;;;;;;5047483;28;20863;-53
2023/07/07 12:27:11;;;;;;;1.63;1.53;;;27.80;93.90;;;;;;5048777;28;21077;-52
2023/07/07 12:29:43;;;;;;;1.90;1.80;;;28.00;99.90;;;;;;5047476;28;20544;-54
2023/07/07 12:32:10;;;;;;;2.83;1.47;;;28.10;88.30;;;;;;5047225;28;20553;-53
2023/07/07 12:34:41;;;;;;;2.30;1.50;;;28.00;99.90;;;;;;5045553;28;20494;-54
2023/07/07 12:37:14;;;;;;;1.70;1.60;;;28.00;99.90;;;;;;5046497;28;21018;-54
2023/07/07 12:39:52;;;;;;;1.80;1.70;;;28.40;99.90;;;;;;5046141;28;20995;-55
2023/07/07 12:42:18;;;;;;;3.33;0.87;;;29.10;91.60;;;;;;5046483;28;20644;-53
2023/07/07 12:44:46;;;;;;;2.30;1.67;;;29.20;73.30;;;;;;5043038;28;20907;-54
2023/07/07 12:47:26;;;;;;;1.77;1.53;;;28.20;20.70;;;;;;5048579;28;20568;-54
2023/07/07 12:49:56;;;;;;;1.40;1.30;;;28.40;72.00;;;;;;5043311;28;20481;-54
2023/07/07 12:52:24;;;;;;;2.47;1.70;;;28.30;87.50;;;;;;5043899;28;20465;-53
2023/07/07 12:55:03;;;;;;;1.27;1.23;;;28.30;84.50;;;;;;5047706;28;20553;-54
2023/07/07 12:57:29;;;;;;;1.67;1.57;;;28.30;85.80;;;;;;5047197;28;20932;-53
2023/07/07 13:00:30;;;;;;;1.57;1.47;;;28.30;91.70;;;;;;5043828;28;20541;-56
2023/07/07 13:03:01;;;;;;;3.57;1.40;;;28.30;99.90;;;;;;5049348;28;20978;-53